createdAt,value
2024-05-09T00:00:48.566Z,62.88
2024-05-09T00:03:37.369Z,63.69
2024-05-09T00:06:05.940Z,63.56
2024-05-09T00:08:34.849Z,63.57
2024-05-09T00:11:03.143Z,62.87
2024-05-09T00:13:31.782Z,63.77
2024-05-09T00:16:00.360Z,64.02
2024-05-09T00:18:29.010Z,64.10
2024-05-09T00:20:57.168Z,64.60
2024-05-09T00:23:25.825Z,64.58
2024-05-09T00:25:53.876Z,64.82
2024-05-09T00:28:22.591Z,63.98
2024-05-09T00:30:50.848Z,64.63
2024-05-09T00:33:19.744Z,64.98
2024-05-09T00:35:47.928Z,64.67
2024-05-09T00:38:16.495Z,64.61
2024-05-09T00:40:44.990Z,64.35
2024-05-09T00:43:14.770Z,64.49
2024-05-09T00:45:44.364Z,63.58
2024-05-09T00:48:19.733Z,62.02
2024-05-09T00:50:50.268Z,59.79
2024-05-09T00:53:19.615Z,59.94
2024-05-09T00:55:48.727Z,62.30
2024-05-09T00:58:21.246Z,62.80
2024-05-09T01:00:54.349Z,63.26
2024-05-09T01:03:23.274Z,63.50
2024-05-09T01:05:52.635Z,63.94
2024-05-09T01:08:21.901Z,63.40
2024-05-09T01:10:50.789Z,63.62
2024-05-09T01:13:19.548Z,64.49
2024-05-09T01:15:50.426Z,64.46
2024-05-09T01:18:19.397Z,64.19
2024-05-09T01:20:47.676Z,63.59
2024-05-09T01:23:18.731Z,63.09
2024-05-09T01:25:47.250Z,63.64
2024-05-09T01:28:16.673Z,63.55
2024-05-09T01:30:45.439Z,62.80
2024-05-09T01:33:14.554Z,63.40
2024-05-09T01:35:43.379Z,63.77
2024-05-09T01:38:17.587Z,63.46
2024-05-09T01:40:48.174Z,63.90
2024-05-09T01:43:17.450Z,63.59
2024-05-09T01:45:45.707Z,63.52
2024-05-09T01:48:14.315Z,63.86
2024-05-09T01:50:43.358Z,63.42
2024-05-09T01:53:15.154Z,63.35
2024-05-09T01:55:44.568Z,63.79
2024-05-09T01:58:13.550Z,63.79
2024-05-09T02:00:43.223Z,63.70
2024-05-09T02:03:16.732Z,62.78
2024-05-09T02:05:48.437Z,60.77
2024-05-09T02:08:20.178Z,59.07
2024-05-09T02:10:50.204Z,59.51
2024-05-09T02:13:20.029Z,59.91
2024-05-09T02:15:52.576Z,60.68
2024-05-09T02:18:21.681Z,59.42
2024-05-09T02:20:50.226Z,58.67
2024-05-09T02:23:20.208Z,58.92
2024-05-09T02:25:48.470Z,58.41
2024-05-09T02:28:17.771Z,58.01
2024-05-09T02:30:45.788Z,57.65
2024-05-09T02:33:14.826Z,58.05
2024-05-09T02:35:44.286Z,57.11
2024-05-09T02:38:13.890Z,56.88
2024-05-09T02:40:42.038Z,56.06
2024-05-09T02:43:13.113Z,55.99
2024-05-09T02:45:42.059Z,55.65
2024-05-09T02:48:12.766Z,55.69
2024-05-09T02:50:42.198Z,55.68
2024-05-09T02:53:14.600Z,55.82
2024-05-09T02:55:43.660Z,56.16
2024-05-09T02:58:12.516Z,57.34
2024-05-09T03:00:43.486Z,57.27
2024-05-09T03:03:15.130Z,56.58
2024-05-09T03:05:45.935Z,55.82
2024-05-09T03:08:15.249Z,56.13
2024-05-09T03:10:43.618Z,56.27
2024-05-09T03:13:15.108Z,56.64
2024-05-09T03:15:45.245Z,56.84
2024-05-09T03:18:14.236Z,56.10
2024-05-09T03:20:44.981Z,56.58
2024-05-09T03:23:13.885Z,57.39
2024-05-09T03:25:42.078Z,57.37
2024-05-09T03:28:11.988Z,57.00
2024-05-09T03:30:42.699Z,57.07
2024-05-09T03:33:16.140Z,57.35
2024-05-09T03:35:44.677Z,56.75
2024-05-09T03:38:15.546Z,56.59
2024-05-09T03:40:50.928Z,57.14
2024-05-09T03:43:20.456Z,56.33
2024-05-09T03:45:51.394Z,56.43
2024-05-09T03:48:20.376Z,56.48
2024-05-09T03:50:48.746Z,55.99
2024-05-09T03:53:19.733Z,56.45
2024-05-09T03:55:49.125Z,56.83
2024-05-09T03:58:19.320Z,57.01
2024-05-09T04:00:47.618Z,56.43
2024-05-09T04:03:16.848Z,56.56
2024-05-09T04:05:45.262Z,56.70
2024-05-09T04:08:15.905Z,56.17
2024-05-09T04:10:47.026Z,55.55
2024-05-09T04:13:15.743Z,55.20
2024-05-09T04:15:44.612Z,55.25
2024-05-09T04:18:13.261Z,55.26
2024-05-09T04:20:41.744Z,55.49
2024-05-09T04:23:14.896Z,55.45
2024-05-09T04:25:45.608Z,55.12
2024-05-09T04:28:14.860Z,54.64
2024-05-09T04:30:43.673Z,54.44
2024-05-09T04:33:14.286Z,54.66
2024-05-09T04:35:44.144Z,53.93
2024-05-09T04:38:14.776Z,53.99
2024-05-09T04:40:43.858Z,53.44
2024-05-09T04:43:17.510Z,52.39
2024-05-09T04:45:46.367Z,53.34
2024-05-09T04:48:16.782Z,52.81
2024-05-09T04:50:45.334Z,53.04
2024-05-09T04:53:17.630Z,53.31
2024-05-09T04:55:46.316Z,53.52
2024-05-09T04:58:15.143Z,53.36
2024-05-09T05:00:44.061Z,53.44
2024-05-09T05:03:15.174Z,53.44
2024-05-09T05:05:46.706Z,53.76
2024-05-09T05:08:18.293Z,53.50
2024-05-09T05:10:48.955Z,53.35
2024-05-09T05:13:22.028Z,53.71
2024-05-09T05:15:56.067Z,54.35
2024-05-09T05:18:27.096Z,54.28
2024-05-09T05:20:56.566Z,54.61
2024-05-09T05:23:26.075Z,54.30
2024-05-09T05:25:55.901Z,54.59
2024-05-09T05:28:24.934Z,54.42
2024-05-09T05:30:53.063Z,54.26
2024-05-09T05:33:23.221Z,54.49
2024-05-09T05:35:51.738Z,54.53
2024-05-09T05:38:22.849Z,54.87
2024-05-09T05:40:53.093Z,54.91
2024-05-09T05:43:22.078Z,55.19
2024-05-09T05:45:50.207Z,55.00
2024-05-09T05:48:19.276Z,55.23
2024-05-09T05:50:49.270Z,55.92
2024-05-09T05:53:41.239Z,55.36
2024-05-09T05:56:13.039Z,55.53
2024-05-09T05:58:45.142Z,55.45
2024-05-09T06:01:17.228Z,55.41
2024-05-09T06:03:50.525Z,55.43
2024-05-09T06:06:20.944Z,54.90
2024-05-09T06:08:50.902Z,55.26
2024-05-09T06:11:19.586Z,55.01
2024-05-09T06:13:47.768Z,55.39
2024-05-09T06:16:16.518Z,55.77
2024-05-09T06:18:44.661Z,56.19
2024-05-09T06:21:13.368Z,55.32
2024-05-09T06:23:49.071Z,55.39
2024-05-09T06:26:17.579Z,55.72
2024-05-09T06:28:45.639Z,55.67
2024-05-09T06:31:14.278Z,55.34
2024-05-09T06:33:42.614Z,54.95
2024-05-09T06:36:11.310Z,54.73
2024-05-09T06:38:39.597Z,55.15
2024-05-09T06:41:08.560Z,54.59
2024-05-09T06:43:37.955Z,54.14
2024-05-09T06:46:06.661Z,54.71
2024-05-09T06:48:34.748Z,54.96
2024-05-09T06:51:03.298Z,53.82
2024-05-09T06:53:34.066Z,53.43
2024-05-09T06:56:02.862Z,52.99
2024-05-09T06:58:30.944Z,53.09
2024-05-09T07:00:59.480Z,52.78
2024-05-09T07:03:28.017Z,52.59
2024-05-09T07:05:56.764Z,52.58
2024-05-09T07:08:24.901Z,52.29
2024-05-09T07:10:53.590Z,50.93
2024-05-09T07:13:21.708Z,52.27
2024-05-09T07:15:50.428Z,51.38
2024-05-09T07:18:21.727Z,51.89
2024-05-09T07:20:50.959Z,50.90
2024-05-09T07:23:19.449Z,51.30
2024-05-09T07:25:48.472Z,51.18
2024-05-09T07:28:18.763Z,49.93
2024-05-09T07:30:48.081Z,50.59
2024-05-09T07:33:23.062Z,51.00
2024-05-09T07:35:54.554Z,49.95
2024-05-09T07:38:22.800Z,49.55
2024-05-09T07:40:51.400Z,50.22
2024-05-09T07:43:19.711Z,49.37
2024-05-09T07:45:53.187Z,49.15
2024-05-09T07:52:39.311Z,48.48
2024-05-09T07:53:49.980Z,47.94
2024-05-09T07:56:22.810Z,48.11
2024-05-09T07:58:54.281Z,46.35
2024-05-09T08:01:26.238Z,47.00
2024-05-09T08:03:55.611Z,45.93
2024-05-09T08:06:25.809Z,46.02
2024-05-09T08:08:54.595Z,45.53
2024-05-09T08:11:24.513Z,44.81
2024-05-09T08:13:52.770Z,44.73
2024-05-09T08:16:21.517Z,43.71
2024-05-09T08:18:50.120Z,43.85
2024-05-09T08:21:19.688Z,44.07
2024-05-09T08:23:48.002Z,44.63
2024-05-09T08:26:16.728Z,44.10
2024-05-09T08:28:44.894Z,43.93
2024-05-09T08:31:13.585Z,44.07
2024-05-09T08:33:47.119Z,43.38
2024-05-09T08:36:16.170Z,43.20
2024-05-09T08:38:44.266Z,43.71
2024-05-09T08:41:14.999Z,43.12
2024-05-09T08:43:44.968Z,43.50
2024-05-09T08:46:14.710Z,42.81
2024-05-09T08:48:44.473Z,43.03
2024-05-09T08:51:14.431Z,42.63
2024-05-09T08:53:42.585Z,43.16
2024-05-09T08:56:12.483Z,43.07
2024-05-09T08:58:42.319Z,42.83
2024-05-09T09:01:12.635Z,42.15
2024-05-09T09:03:43.051Z,42.71
2024-05-09T09:06:19.348Z,42.78
2024-05-09T09:08:50.545Z,42.31
2024-05-09T09:11:19.597Z,42.41
2024-05-09T09:13:47.689Z,41.98
2024-05-09T09:16:17.491Z,41.81
2024-05-09T09:18:49.924Z,42.57
2024-05-09T09:21:18.828Z,42.39
2024-05-09T09:23:46.832Z,42.56
2024-05-09T09:26:18.843Z,41.47
2024-05-09T09:28:47.836Z,41.77
2024-05-09T09:31:20.251Z,41.62
2024-05-09T09:33:48.813Z,41.97
2024-05-09T09:36:18.742Z,41.34
2024-05-09T09:38:51.211Z,41.47
2024-05-09T09:41:26.056Z,42.03
2024-05-09T09:43:54.771Z,41.54
2024-05-09T09:46:24.795Z,41.61
2024-05-09T09:48:54.328Z,41.36
2024-05-09T09:51:23.093Z,42.13
2024-05-09T09:53:53.050Z,41.54
2024-05-09T09:56:23.577Z,41.39
2024-05-09T09:58:53.508Z,41.29
2024-05-09T10:01:22.449Z,40.99
2024-05-09T10:03:51.018Z,40.98
2024-05-09T10:06:20.705Z,40.81
2024-05-09T10:08:50.092Z,39.52
2024-05-09T10:11:22.542Z,39.32
2024-05-09T10:13:52.124Z,39.60
2024-05-09T10:16:23.331Z,39.39
2024-05-09T10:18:51.988Z,39.35
2024-05-09T10:21:22.028Z,39.71
2024-05-09T10:24:02.962Z,38.35
2024-05-09T10:26:38.736Z,38.50
2024-05-09T10:29:20.124Z,39.28
2024-05-09T10:31:49.012Z,38.19
2024-05-09T10:34:22.345Z,38.40
2024-05-09T10:36:55.126Z,38.21
2024-05-09T10:39:25.636Z,37.99
2024-05-09T10:41:54.460Z,39.26
2024-05-09T10:44:22.535Z,39.51
2024-05-09T10:46:51.294Z,39.56
2024-05-09T10:49:19.559Z,40.06
2024-05-09T10:51:49.390Z,40.34
2024-05-09T10:54:17.582Z,39.27
2024-05-09T10:56:46.329Z,38.55
2024-05-09T10:59:14.448Z,38.31
2024-05-09T11:01:43.313Z,38.24
2024-05-09T11:04:11.897Z,38.59
2024-05-09T11:06:41.612Z,39.41
2024-05-09T11:09:10.019Z,39.97
2024-05-09T11:11:38.749Z,39.03
2024-05-09T11:14:13.911Z,38.47
2024-05-09T11:16:42.522Z,38.75
2024-05-09T11:19:14.674Z,38.95
2024-05-09T11:21:43.479Z,38.26
2024-05-09T11:24:12.530Z,38.78
2024-05-09T11:26:41.411Z,38.41
2024-05-09T11:29:10.168Z,39.96
2024-05-09T11:31:48.739Z,40.28
2024-05-09T11:34:17.010Z,40.05
2024-05-09T11:36:45.797Z,40.05
2024-05-09T11:39:15.010Z,39.98
2024-05-09T11:41:43.593Z,39.47
2024-05-09T11:44:11.792Z,38.83
2024-05-09T11:46:40.459Z,39.21
2024-05-09T11:49:09.980Z,38.49
2024-05-09T11:51:38.883Z,39.69
2024-05-09T11:54:07.175Z,39.59
2024-05-09T11:56:37.111Z,39.97
2024-05-09T11:59:05.216Z,39.83
2024-05-09T12:01:33.956Z,39.80
2024-05-09T12:04:03.160Z,39.18
2024-05-09T12:06:32.293Z,38.58
2024-05-09T12:09:01.037Z,39.52
2024-05-09T12:11:29.817Z,39.75
2024-05-09T12:13:58.018Z,39.16
2024-05-09T12:16:26.728Z,39.07
2024-05-09T12:18:55.202Z,39.81
2024-05-09T12:21:23.822Z,39.43
2024-05-09T12:23:51.800Z,40.34
2024-05-09T12:26:20.387Z,41.42
2024-05-09T12:28:48.476Z,41.52
2024-05-09T12:31:17.011Z,42.08
2024-05-09T12:33:46.592Z,42.46
2024-05-09T12:36:15.279Z,42.13
2024-05-09T12:38:43.436Z,43.20
2024-05-09T12:41:12.630Z,42.67
2024-05-09T12:43:40.655Z,42.04
2024-05-09T12:46:09.414Z,42.10
2024-05-09T12:48:38.014Z,42.61
2024-05-09T12:51:06.788Z,43.17
2024-05-09T12:53:36.713Z,43.06
2024-05-09T12:56:07.208Z,42.64
2024-05-09T12:58:37.842Z,42.59
2024-05-09T13:01:06.831Z,43.13
2024-05-09T13:03:35.282Z,43.93
2024-05-09T13:06:04.200Z,43.73
2024-05-09T13:08:32.338Z,44.15
2024-05-09T13:11:01.203Z,43.57
2024-05-09T13:13:29.624Z,43.07
2024-05-09T13:15:58.282Z,42.52
2024-05-09T13:18:26.869Z,42.25
2024-05-09T13:20:55.482Z,43.09
2024-05-09T13:23:23.481Z,43.78
2024-05-09T13:25:54.511Z,42.42
2024-05-09T13:28:23.099Z,43.02
2024-05-09T13:30:51.724Z,44.64
2024-05-09T13:33:20.123Z,45.08
2024-05-09T13:35:50.738Z,46.00
2024-05-09T13:38:21.112Z,45.34
2024-05-09T13:40:50.667Z,45.59
2024-05-09T13:43:22.258Z,45.30
2024-05-09T13:45:52.504Z,45.56
2024-05-09T13:48:20.880Z,45.91
2024-05-09T13:50:49.758Z,46.36
2024-05-09T13:53:17.852Z,46.47
2024-05-09T13:55:46.939Z,46.43
2024-05-09T13:58:15.459Z,46.14
2024-05-09T14:00:48.230Z,46.67
2024-05-09T14:03:20.307Z,46.42
2024-05-09T14:05:51.697Z,46.23
2024-05-09T14:08:22.697Z,46.03
2024-05-09T14:10:52.584Z,46.65
2024-05-09T14:13:20.983Z,47.45
2024-05-09T14:15:50.174Z,47.22
2024-05-09T14:18:18.506Z,47.57
2024-05-09T14:20:47.120Z,47.38
2024-05-09T14:23:17.840Z,47.62
2024-05-09T14:25:51.193Z,47.31
2024-05-09T14:28:22.504Z,48.08
2024-05-09T14:30:51.695Z,47.94
2024-05-09T14:33:25.698Z,48.10
2024-05-09T14:35:54.875Z,48.04
2024-05-09T14:38:27.840Z,48.70
2024-05-09T14:40:56.761Z,48.43
2024-05-09T14:43:25.151Z,48.21
2024-05-09T14:45:54.286Z,47.87
2024-05-09T14:48:23.520Z,48.95
2024-05-09T14:50:52.003Z,48.13
2024-05-09T14:53:20.117Z,48.31
2024-05-09T14:55:57.565Z,48.98
2024-05-09T14:58:41.215Z,48.24
2024-05-09T15:01:11.275Z,48.68
2024-05-09T15:03:40.244Z,48.81
2024-05-09T15:06:10.022Z,49.53
2024-05-09T15:08:39.147Z,49.23
2024-05-09T15:11:08.719Z,49.40
2024-05-09T15:13:40.922Z,49.83
2024-05-09T15:16:09.699Z,49.94
2024-05-09T15:18:41.373Z,49.60
2024-05-09T15:21:12.988Z,50.31
2024-05-09T15:23:41.162Z,50.15
2024-05-09T15:26:09.757Z,50.06
2024-05-09T15:28:38.013Z,50.88
2024-05-09T15:31:06.545Z,50.80
2024-05-09T15:33:34.988Z,51.20
2024-05-09T15:36:03.858Z,51.04
2024-05-09T15:38:32.131Z,51.38
2024-05-09T15:41:00.896Z,51.37
2024-05-09T15:43:29.301Z,51.19
2024-05-09T15:45:58.051Z,51.53
2024-05-09T15:48:26.359Z,50.85
2024-05-09T15:50:55.194Z,51.68
2024-05-09T15:53:23.541Z,52.10
2024-05-09T15:55:52.067Z,52.14
2024-05-09T15:58:20.715Z,52.36
2024-05-09T16:00:52.013Z,53.06
2024-05-09T16:03:21.571Z,52.64
2024-05-09T16:05:50.775Z,52.47
2024-05-09T16:08:18.930Z,53.07
2024-05-09T16:10:47.924Z,54.01
2024-05-09T16:13:17.428Z,53.77
2024-05-09T16:15:46.979Z,53.43
2024-05-09T16:18:18.064Z,53.64
2024-05-09T16:20:49.345Z,54.11
2024-05-09T16:23:18.566Z,54.11
2024-05-09T16:25:48.556Z,54.34
2024-05-09T16:28:18.675Z,54.14
2024-05-09T16:30:47.575Z,53.87
2024-05-09T16:33:15.756Z,54.77
2024-05-09T16:35:44.367Z,54.51
2024-05-09T16:38:13.614Z,55.22
2024-05-09T16:40:42.248Z,54.98
2024-05-09T16:43:12.729Z,55.61
2024-05-09T16:45:46.697Z,55.25
2024-05-09T16:48:15.315Z,55.39
2024-05-09T16:50:46.125Z,55.49
2024-05-09T16:53:14.189Z,55.48
2024-05-09T16:55:43.033Z,55.63
2024-05-09T16:58:12.771Z,55.52
2024-05-09T17:00:43.644Z,55.86
2024-05-09T17:03:16.074Z,56.20
2024-05-09T17:05:47.264Z,56.53
2024-05-09T17:08:20.363Z,56.46
2024-05-09T17:10:49.915Z,56.24
2024-05-09T17:13:19.216Z,56.01
2024-05-09T17:15:50.221Z,56.31
2024-05-09T17:18:18.762Z,56.75
2024-05-09T17:20:49.391Z,55.64
2024-05-09T17:23:17.601Z,55.67
2024-05-09T17:25:46.586Z,54.83
2024-05-09T17:28:15.098Z,55.17
2024-05-09T17:30:44.045Z,54.65
2024-05-09T17:33:13.222Z,55.15
2024-05-09T17:35:42.448Z,54.31
2024-05-09T17:38:10.725Z,52.90
2024-05-09T17:40:40.102Z,53.43
2024-05-09T17:43:10.291Z,53.81
2024-05-09T17:45:41.261Z,53.46
2024-05-09T17:48:12.029Z,53.21
2024-05-09T17:50:42.185Z,53.32
2024-05-09T17:53:11.072Z,53.84
2024-05-09T17:55:41.710Z,52.78
2024-05-09T17:58:10.505Z,52.30
2024-05-09T18:00:41.810Z,52.69
2024-05-09T18:03:12.500Z,51.82
2024-05-09T18:05:44.778Z,51.74
2024-05-09T18:08:14.106Z,51.25
2024-05-09T18:10:43.235Z,50.89
2024-05-09T18:13:12.370Z,49.01
2024-05-09T18:15:42.384Z,49.77
2024-05-09T18:18:11.774Z,50.28
2024-05-09T18:20:44.519Z,50.55
2024-05-09T18:23:18.218Z,50.81
2024-05-09T18:25:48.424Z,49.57
2024-05-09T18:28:17.687Z,49.68
2024-05-09T18:30:46.835Z,50.26
2024-05-09T18:33:16.558Z,50.98
2024-05-09T18:35:45.744Z,50.72
2024-05-09T18:38:13.959Z,50.55
2024-05-09T18:40:44.712Z,51.43
2024-05-09T18:43:15.346Z,51.43
2024-05-09T18:45:44.777Z,53.06
2024-05-09T18:48:13.975Z,53.14
2024-05-09T18:50:43.117Z,54.06
2024-05-09T18:53:12.639Z,55.13
2024-05-09T18:55:43.021Z,55.22
2024-05-09T18:58:12.082Z,55.72
2024-05-09T19:00:43.833Z,55.85
2024-05-09T19:03:14.921Z,55.93
2024-05-09T19:05:46.209Z,56.00
2024-05-09T19:08:15.978Z,55.48
2024-05-09T19:10:48.113Z,55.55
2024-05-09T19:13:19.806Z,55.86
2024-05-09T19:15:49.773Z,56.01
2024-05-09T19:18:18.141Z,56.40
2024-05-09T19:20:47.002Z,56.69
2024-05-09T19:23:15.391Z,57.13
2024-05-09T19:25:44.103Z,57.21
2024-05-09T19:28:12.255Z,57.31
2024-05-09T19:30:42.537Z,57.32
2024-05-09T19:33:15.114Z,56.96
2024-05-09T19:35:44.123Z,57.01
2024-05-09T19:38:13.196Z,57.38
2024-05-09T19:40:44.213Z,56.93
2024-05-09T19:43:12.434Z,56.79
2024-05-09T19:45:41.435Z,57.58
2024-05-09T19:48:09.698Z,58.15
2024-05-09T19:50:43.108Z,57.52
2024-05-09T19:53:15.997Z,57.10
2024-05-09T19:55:44.563Z,57.20
2024-05-09T19:58:13.378Z,57.25
2024-05-09T20:00:43.818Z,57.66
2024-05-09T20:03:15.103Z,58.08
2024-05-09T20:05:46.971Z,57.97
2024-05-09T20:08:15.949Z,58.14
2024-05-09T20:10:44.856Z,58.08
2024-05-09T20:13:14.009Z,58.40
2024-05-09T20:15:43.126Z,58.95
2024-05-09T20:18:11.767Z,59.01
2024-05-09T20:20:42.830Z,59.28
2024-05-09T20:23:16.572Z,59.74
2024-05-09T20:25:44.761Z,59.58
2024-05-09T20:28:13.504Z,59.33
2024-05-09T20:30:42.037Z,59.42
2024-05-09T20:33:12.256Z,59.71
2024-05-09T20:35:40.790Z,59.47
2024-05-09T20:38:09.451Z,60.48
2024-05-09T20:40:39.371Z,59.67
2024-05-09T20:43:12.062Z,60.00
2024-05-09T20:45:40.861Z,59.74
2024-05-09T20:48:10.258Z,60.02
2024-05-09T20:50:41.450Z,60.52
2024-05-09T20:53:14.270Z,60.87
2024-05-09T20:55:45.140Z,60.85
2024-05-09T20:58:14.907Z,60.88
2024-05-09T21:00:45.727Z,59.83
2024-05-09T21:03:17.498Z,60.24
2024-05-09T21:05:47.954Z,60.41
2024-05-09T21:08:17.090Z,59.87
2024-05-09T21:10:45.635Z,60.32
2024-05-09T21:13:15.349Z,60.31
2024-05-09T21:15:43.580Z,60.32
2024-05-09T21:18:12.513Z,60.81
2024-05-09T21:20:40.704Z,60.50
2024-05-09T21:23:12.879Z,59.66
2024-05-09T21:25:41.088Z,60.17
2024-05-09T21:28:09.787Z,60.86
2024-05-09T21:30:42.155Z,59.67
2024-05-09T21:33:13.880Z,60.44
2024-05-09T21:35:44.528Z,60.78
2024-05-09T21:38:14.914Z,60.79
2024-05-09T21:40:44.554Z,61.09
2024-05-09T21:43:16.712Z,61.04
2024-05-09T21:45:48.754Z,61.49
2024-05-09T21:48:23.147Z,60.99
2024-05-09T21:50:54.384Z,60.76
2024-05-09T21:53:25.747Z,61.56
2024-05-09T21:55:56.393Z,61.63
2024-05-09T21:58:26.986Z,61.29
2024-05-09T22:00:55.506Z,61.96
2024-05-09T22:03:24.561Z,62.28
2024-05-09T22:05:53.209Z,62.11
2024-05-09T22:08:22.525Z,62.62
2024-05-09T22:10:51.537Z,62.11
2024-05-09T22:13:20.750Z,60.90
2024-05-09T22:15:48.819Z,61.22
2024-05-09T22:18:17.677Z,61.19
2024-05-09T22:20:46.799Z,60.74
2024-05-09T22:23:18.392Z,61.05
2024-05-09T22:25:46.599Z,61.12
2024-05-09T22:28:16.367Z,60.89
2024-05-09T22:30:46.572Z,61.59
2024-05-09T22:33:16.152Z,61.96
2024-05-09T22:35:44.490Z,61.76
2024-05-09T22:38:13.257Z,62.27
2024-05-09T22:40:47.876Z,62.46
2024-05-09T22:43:21.493Z,63.13
2024-05-09T22:45:55.966Z,63.39
2024-05-09T22:48:25.820Z,62.82
2024-05-09T22:50:55.354Z,62.28
2024-05-09T22:53:25.525Z,62.44
2024-05-09T22:55:55.259Z,62.54
2024-05-09T22:58:25.981Z,62.13
2024-05-09T23:01:06.907Z,62.26
2024-05-09T23:03:41.256Z,62.56
2024-05-09T23:06:09.944Z,62.60
2024-05-09T23:08:40.633Z,62.49
2024-05-09T23:11:09.013Z,62.15
2024-05-09T23:13:38.617Z,61.88
2024-05-09T23:16:07.713Z,61.80
2024-05-09T23:18:37.130Z,61.60
2024-05-09T23:21:05.700Z,61.42
2024-05-09T23:23:34.512Z,61.25
2024-05-09T23:26:02.806Z,61.07
2024-05-09T23:28:32.004Z,61.57
2024-05-09T23:31:00.058Z,61.57
2024-05-09T23:33:28.983Z,61.67
2024-05-09T23:35:57.555Z,61.63
2024-05-09T23:38:26.318Z,61.49
2024-05-09T23:40:54.507Z,61.16
2024-05-09T23:43:23.379Z,61.51
2024-05-09T23:45:51.430Z,61.59
2024-05-09T23:48:20.244Z,61.37
2024-05-09T23:50:48.488Z,61.49
2024-05-09T23:53:16.953Z,61.19
2024-05-09T23:55:45.094Z,60.96
2024-05-09T23:58:13.768Z,61.27
